Terminal Aerodrome Forecast
Issued by NWS Charleston, WV

Current Version | Previous Version | Text Only | Print | Product List | Glossary Off
Versions: 1 2 3 4 5 6 7 8 9 10 11 12 13 14 15 16 17 18 19 20 21 22 23 24 25 26 27 28

531
FTUS41 KRLX 210547
TAFEKN
TAF
KEKN 210547Z 2106/2206 00000KT 2SM BR SCT050
      TEMPO 2106/2107 3/4SM BR SCT001 BKN050
     FM210700 00000KT 1/2SM FG VV001
     FM211300 00000KT 2SM BR BKN002
     FM211400 00000KT P6SM SCT050 BKN250
     FM211600 19006KT P6SM BKN040
     FM220000 17003KT P6SM BKN070=

USA.gov is the U.S. government's official web portal to all federal, state and local government web resources and services.